createdAt,value
2023-03-13T00:01:56.209Z,18.80
2023-03-13T00:04:22.959Z,18.80
2023-03-13T00:06:49.638Z,18.80
2023-03-13T00:09:17.005Z,18.70
2023-03-13T00:11:45.632Z,18.70
2023-03-13T00:14:12.713Z,18.70
2023-03-13T00:16:39.700Z,18.60
2023-03-13T00:19:07.951Z,18.60
2023-03-13T00:21:37.480Z,18.60
2023-03-13T00:24:04.988Z,18.50
2023-03-13T00:26:31.724Z,18.50
2023-03-13T00:28:58.605Z,18.50
2023-03-13T00:31:30.531Z,18.40
2023-03-13T00:34:06.140Z,18.40
2023-03-13T00:36:34.740Z,18.40
2023-03-13T00:39:03.137Z,18.40
2023-03-13T00:41:32.302Z,18.30
2023-03-13T00:43:59.704Z,18.30
2023-03-13T00:46:29.464Z,18.30
2023-03-13T00:48:57.335Z,18.30
2023-03-13T00:51:26.775Z,18.20
2023-03-13T00:53:54.233Z,18.20
2023-03-13T00:56:21.873Z,18.20
2023-03-13T00:58:50.326Z,18.10
2023-03-13T01:01:28.979Z,18.10
2023-03-13T01:03:59.230Z,18.10
2023-03-13T01:06:30.876Z,18.00
2023-03-13T01:08:58.662Z,18.00
2023-03-13T01:11:29.584Z,18.00
2023-03-13T01:13:58.503Z,18.00
2023-03-13T01:16:27.666Z,17.90
2023-03-13T01:18:59.635Z,17.90
2023-03-13T01:21:26.895Z,17.90
2023-03-13T01:23:54.274Z,17.80
2023-03-13T01:26:22.150Z,17.80
2023-03-13T01:28:49.155Z,17.80
2023-03-13T01:31:24.512Z,17.80
2023-03-13T01:33:55.691Z,17.70
2023-03-13T01:36:23.105Z,17.70
2023-03-13T01:38:52.355Z,17.70
2023-03-13T01:41:20.202Z,17.70
2023-03-13T01:43:47.626Z,17.60
2023-03-13T01:46:18.334Z,17.60
2023-03-13T01:49:03.881Z,17.60
2023-03-13T01:51:43.339Z,17.60
2023-03-13T01:54:32.073Z,17.50
2023-03-13T01:57:09.804Z,17.50
2023-03-13T01:59:54.511Z,17.50
2023-03-13T02:02:22.506Z,17.50
2023-03-13T02:04:55.792Z,17.50
2023-03-13T02:07:28.313Z,17.40
2023-03-13T02:09:56.862Z,17.40
2023-03-13T02:12:33.745Z,17.40
2023-03-13T02:15:06.139Z,17.40
2023-03-13T02:17:35.260Z,17.40
2023-03-13T02:20:04.486Z,17.30
2023-03-13T02:23:02.344Z,17.30
2023-03-13T02:25:41.791Z,17.30
2023-03-13T02:28:13.295Z,17.30
2023-03-13T02:30:43.954Z,17.30
2023-03-13T02:33:12.619Z,17.20
2023-03-13T02:35:39.610Z,17.20
2023-03-13T02:38:14.136Z,17.20
2023-03-13T02:40:45.093Z,17.20
2023-03-13T02:43:18.281Z,17.10
2023-03-13T02:46:11.492Z,17.10
2023-03-13T02:48:52.420Z,17.10
2023-03-13T02:51:41.717Z,17.10
2023-03-13T02:54:14.190Z,17.10
2023-03-13T02:56:45.351Z,17.10
2023-03-13T02:59:12.345Z,17.00
2023-03-13T03:01:42.987Z,17.00
2023-03-13T03:04:09.860Z,17.00
2023-03-13T03:06:37.130Z,17.00
2023-03-13T03:09:05.289Z,17.00
2023-03-13T03:11:35.165Z,17.00
2023-03-13T03:14:06.937Z,17.00
2023-03-13T03:16:38.658Z,16.90
2023-03-13T03:19:06.631Z,16.90
2023-03-13T03:21:34.188Z,16.90
2023-03-13T03:24:01.394Z,16.90
2023-03-13T03:26:28.441Z,16.90
2023-03-13T03:28:55.344Z,16.90
2023-03-13T03:31:22.275Z,16.80
2023-03-13T03:33:49.268Z,16.80
2023-03-13T03:36:20.768Z,16.80
2023-03-13T03:38:49.076Z,16.80
2023-03-13T03:41:19.600Z,16.80
2023-03-13T03:43:47.503Z,16.80
2023-03-13T03:46:17.178Z,16.80
2023-03-13T03:48:43.977Z,16.70
2023-03-13T03:51:12.140Z,16.70
2023-03-13T03:53:41.682Z,16.70
2023-03-13T03:56:08.822Z,16.70
2023-03-13T03:58:40.322Z,16.70
2023-03-13T04:01:21.789Z,16.70
2023-03-13T04:03:48.916Z,16.60
2023-03-13T04:06:16.292Z,16.70
2023-03-13T04:08:43.792Z,16.60
2023-03-13T04:11:13.565Z,16.60
2023-03-13T04:13:44.077Z,16.60
2023-03-13T04:16:11.224Z,16.60
2023-03-13T04:18:38.988Z,16.60
2023-03-13T04:21:06.827Z,16.50
2023-03-13T04:23:42.313Z,16.50
2023-03-13T04:26:09.084Z,16.50
2023-03-13T04:28:37.032Z,16.50
2023-03-13T04:31:06.754Z,16.50
2023-03-13T04:33:52.222Z,16.50
2023-03-13T04:36:37.658Z,16.50
2023-03-13T04:39:25.266Z,16.40
2023-03-13T04:42:11.946Z,16.50
2023-03-13T04:44:55.362Z,16.40
2023-03-13T04:47:47.107Z,16.40
2023-03-13T04:50:32.469Z,16.40
2023-03-13T04:53:08.232Z,16.40
2023-03-13T04:55:54.317Z,16.40
2023-03-13T04:58:41.962Z,16.40
2023-03-13T05:01:27.625Z,16.40
2023-03-13T05:04:16.185Z,16.40
2023-03-13T05:07:03.168Z,16.30
2023-03-13T05:09:47.406Z,16.30
2023-03-13T05:12:32.890Z,16.30
2023-03-13T05:15:19.830Z,16.30
2023-03-13T05:18:05.636Z,16.30
2023-03-13T05:20:47.574Z,16.30
2023-03-13T05:23:40.536Z,16.30
2023-03-13T05:26:29.997Z,16.20
2023-03-13T05:29:22.865Z,16.20
2023-03-13T05:32:04.848Z,16.20
2023-03-13T05:34:41.887Z,16.20
2023-03-13T05:37:23.095Z,16.20
2023-03-13T05:39:57.929Z,16.20
2023-03-13T05:42:30.579Z,16.20
2023-03-13T05:45:01.772Z,16.20
2023-03-13T05:47:54.748Z,16.10
2023-03-13T05:50:35.852Z,16.10
2023-03-13T05:53:17.695Z,16.10
2023-03-13T05:56:22.974Z,16.10
2023-03-13T05:58:59.057Z,16.10
2023-03-13T06:01:55.146Z,16.10
2023-03-13T06:04:33.903Z,16.10
2023-03-13T06:07:01.597Z,16.10
2023-03-13T06:09:28.417Z,16.10
2023-03-13T06:11:56.692Z,16.10
2023-03-13T06:14:24.070Z,16.10
2023-03-13T06:17:09.640Z,16.10
2023-03-13T06:19:36.363Z,16.00
2023-03-13T06:22:03.107Z,16.00
2023-03-13T06:24:29.839Z,16.00
2023-03-13T06:26:56.589Z,16.00
2023-03-13T06:29:24.346Z,16.00
2023-03-13T06:31:51.648Z,16.00
2023-03-13T06:34:18.885Z,16.00
2023-03-13T06:36:45.643Z,16.00
2023-03-13T06:39:13.095Z,16.00
2023-03-13T06:41:39.844Z,16.00
2023-03-13T06:44:06.735Z,15.90
2023-03-13T06:46:33.718Z,15.90
2023-03-13T06:49:04.480Z,16.00
2023-03-13T06:51:31.606Z,15.90
2023-03-13T06:53:58.371Z,15.90
2023-03-13T06:56:25.203Z,15.90
2023-03-13T06:58:52.028Z,15.90
2023-03-13T07:01:19.019Z,15.90
2023-03-13T07:03:48.015Z,15.90
2023-03-13T07:06:15.933Z,15.90
2023-03-13T07:08:44.152Z,15.90
2023-03-13T07:11:13.284Z,15.90
2023-03-13T07:13:40.213Z,15.80
2023-03-13T07:16:09.712Z,15.80
2023-03-13T07:18:37.102Z,15.80
2023-03-13T07:21:05.211Z,15.80
2023-03-13T07:23:33.049Z,15.80
2023-03-13T07:26:02.750Z,15.80
2023-03-13T07:28:34.457Z,15.80
2023-03-13T07:31:07.577Z,15.80
2023-03-13T07:33:34.628Z,15.80
2023-03-13T07:36:01.471Z,15.80
2023-03-13T07:38:28.293Z,15.80
2023-03-13T07:40:57.039Z,15.80
2023-03-13T07:43:24.751Z,15.70
2023-03-13T07:45:52.641Z,15.70
2023-03-13T07:48:20.103Z,15.70
2023-03-13T07:50:46.879Z,15.70
2023-03-13T07:53:15.692Z,15.70
2023-03-13T07:55:42.931Z,15.70
2023-03-13T07:58:10.035Z,15.70
2023-03-13T08:00:36.809Z,15.70
2023-03-13T08:03:07.654Z,15.70
2023-03-13T08:05:38.790Z,15.70
2023-03-13T08:08:13.358Z,15.70
2023-03-13T08:10:54.611Z,15.70
2023-03-13T08:16:41.322Z,15.70
2023-03-13T08:19:08.074Z,15.70
2023-03-13T08:21:36.790Z,15.70
2023-03-13T08:24:06.951Z,15.70
2023-03-13T08:26:36.408Z,15.70
2023-03-13T08:29:07.665Z,15.60
2023-03-13T08:31:47.372Z,15.70
2023-03-13T08:34:15.618Z,15.70
2023-03-13T08:36:42.567Z,15.70
2023-03-13T08:39:17.603Z,15.60
2023-03-13T08:41:44.475Z,15.70
2023-03-13T08:44:13.500Z,15.60
2023-03-13T08:46:40.720Z,15.70
2023-03-13T08:49:08.300Z,15.60
2023-03-13T08:51:35.849Z,15.70
2023-03-13T08:54:04.073Z,15.60
2023-03-13T08:56:31.849Z,15.60
2023-03-13T08:59:00.996Z,15.60
2023-03-13T09:01:30.694Z,15.70
2023-03-13T09:03:58.614Z,15.70
2023-03-13T09:06:26.119Z,15.60
2023-03-13T09:08:53.059Z,15.60
2023-03-13T09:11:21.512Z,15.70
2023-03-13T09:13:50.393Z,15.60
2023-03-13T09:16:22.452Z,15.60
2023-03-13T09:18:50.270Z,15.70
2023-03-13T09:21:20.008Z,15.70
2023-03-13T09:23:47.554Z,15.70
2023-03-13T09:26:15.435Z,15.70
2023-03-13T09:28:42.360Z,15.70
2023-03-13T09:31:14.905Z,15.70
2023-03-13T09:33:43.542Z,15.80
2023-03-13T09:36:11.339Z,15.80
2023-03-13T09:38:39.278Z,15.80
2023-03-13T09:41:43.496Z,15.80
2023-03-13T09:44:19.465Z,15.90
2023-03-13T09:47:12.911Z,15.90
2023-03-13T09:49:48.614Z,15.90
2023-03-13T09:52:34.060Z,15.90
2023-03-13T09:55:28.604Z,15.90
2023-03-13T09:58:19.025Z,16.00
2023-03-13T10:00:54.359Z,16.00
2023-03-13T10:03:27.644Z,16.10
2023-03-13T10:05:57.797Z,16.10
2023-03-13T10:08:27.008Z,16.10
2023-03-13T10:10:56.617Z,16.10
2023-03-13T10:13:33.130Z,16.20
2023-03-13T10:16:04.706Z,16.20
2023-03-13T10:18:32.929Z,16.20
2023-03-13T10:21:07.585Z,16.30
2023-03-13T10:23:43.373Z,16.30
2023-03-13T10:26:23.073Z,16.30
2023-03-13T10:28:51.570Z,16.30
2023-03-13T10:31:30.459Z,16.40
2023-03-13T10:34:07.251Z,16.40
2023-03-13T10:36:49.906Z,16.40
2023-03-13T10:39:19.522Z,16.40
2023-03-13T10:41:47.914Z,16.40
2023-03-13T10:44:22.612Z,16.40
2023-03-13T10:46:51.238Z,16.50
2023-03-13T10:49:24.490Z,16.50
2023-03-13T10:51:52.400Z,16.50
2023-03-13T10:54:37.497Z,16.50
2023-03-13T10:57:29.590Z,16.50
2023-03-13T10:59:56.841Z,16.50
2023-03-13T11:02:35.515Z,16.50
2023-03-13T11:05:43.230Z,16.50
2023-03-13T11:08:22.671Z,16.50
2023-03-13T11:10:58.391Z,16.50
2023-03-13T11:13:49.522Z,16.50
2023-03-13T11:16:23.483Z,16.50
2023-03-13T11:19:19.681Z,16.50
2023-03-13T11:22:14.594Z,16.50
2023-03-13T11:25:20.728Z,16.50
2023-03-13T11:28:07.654Z,16.50
2023-03-13T11:30:44.934Z,16.50
2023-03-13T11:33:21.424Z,16.50
2023-03-13T11:36:27.566Z,16.50
2023-03-13T11:39:32.986Z,16.50
2023-03-13T11:42:01.222Z,16.50
2023-03-13T11:45:15.476Z,16.50
2023-03-13T11:47:59.648Z,16.50
2023-03-13T11:50:52.322Z,16.40
2023-03-13T11:53:27.615Z,16.50
2023-03-13T11:56:06.728Z,16.40
2023-03-13T11:58:45.049Z,16.40
2023-03-13T12:01:17.187Z,16.40
2023-03-13T12:03:54.298Z,16.40
2023-03-13T12:06:28.575Z,16.40
2023-03-13T12:09:16.365Z,16.50
2023-03-13T12:12:35.843Z,16.40
2023-03-13T12:15:15.382Z,16.40
2023-03-13T12:17:55.714Z,16.40
2023-03-13T12:20:27.507Z,16.40
2023-03-13T12:23:07.457Z,16.40
2023-03-13T12:25:45.622Z,16.40
2023-03-13T12:28:18.448Z,16.40
2023-03-13T12:30:52.518Z,16.40
2023-03-13T12:33:36.018Z,16.40
2023-03-13T12:36:26.231Z,16.40
2023-03-13T12:39:15.904Z,16.40
2023-03-13T12:41:46.073Z,16.40
2023-03-13T12:44:19.788Z,16.40
2023-03-13T12:47:08.468Z,16.40
2023-03-13T12:50:26.547Z,16.40
2023-03-13T12:53:01.865Z,16.40
2023-03-13T12:55:37.617Z,16.40
2023-03-13T12:58:26.896Z,16.40
2023-03-13T13:00:56.241Z,16.40
2023-03-13T13:03:39.733Z,16.40
2023-03-13T13:06:09.452Z,16.40
2023-03-13T13:08:43.387Z,16.40
2023-03-13T13:11:38.074Z,16.40
2023-03-13T13:14:17.043Z,16.40
2023-03-13T13:16:46.353Z,16.40
2023-03-13T13:19:25.160Z,16.40
2023-03-13T13:22:29.512Z,16.40
2023-03-13T13:24:59.326Z,16.40
2023-03-13T13:27:49.408Z,16.40
2023-03-13T13:30:31.637Z,16.40
2023-03-13T13:33:18.813Z,16.40
2023-03-13T13:35:46.726Z,16.40
2023-03-13T13:38:19.591Z,16.40
2023-03-13T13:41:02.589Z,16.40
2023-03-13T13:43:33.037Z,16.40
2023-03-13T13:46:01.927Z,16.40
2023-03-13T13:48:39.943Z,16.40
2023-03-13T13:51:14.011Z,16.40
2023-03-13T13:53:55.949Z,16.40
2023-03-13T13:56:28.728Z,16.40
2023-03-13T13:59:20.376Z,16.40
2023-03-13T14:01:49.527Z,16.40
2023-03-13T14:04:26.731Z,16.40
2023-03-13T14:06:54.362Z,16.40
2023-03-13T14:09:28.057Z,16.40
2023-03-13T14:11:55.020Z,16.40
2023-03-13T14:14:22.051Z,16.40
2023-03-13T14:16:56.979Z,16.40
2023-03-13T14:19:30.473Z,16.40
2023-03-13T14:22:06.365Z,16.40
2023-03-13T14:24:33.329Z,16.40
2023-03-13T14:27:00.464Z,16.40
2023-03-13T14:29:27.259Z,16.40
2023-03-13T14:31:57.054Z,16.40
2023-03-13T14:34:24.068Z,16.40
2023-03-13T14:37:07.426Z,16.40
2023-03-13T14:39:45.661Z,16.40
2023-03-13T14:42:14.779Z,16.40
2023-03-13T14:44:44.004Z,16.40
2023-03-13T14:47:16.730Z,16.50
2023-03-13T14:49:46.694Z,16.50
2023-03-13T14:52:27.302Z,16.50
2023-03-13T14:55:02.328Z,16.50
2023-03-13T14:57:29.560Z,16.50
2023-03-13T15:00:30.203Z,16.50
2023-03-13T15:03:16.679Z,16.50
2023-03-13T15:05:44.188Z,16.50
2023-03-13T15:08:16.125Z,16.50
2023-03-13T15:10:43.429Z,16.50
2023-03-13T15:13:29.314Z,16.50
2023-03-13T15:15:56.212Z,16.50
2023-03-13T15:18:28.623Z,16.60
2023-03-13T15:20:58.305Z,16.60
2023-03-13T15:23:25.229Z,16.60
2023-03-13T15:25:51.994Z,16.60
2023-03-13T15:28:23.778Z,16.60
2023-03-13T15:30:52.458Z,16.60
2023-03-13T15:33:25.893Z,16.60
2023-03-13T15:35:52.698Z,16.60
2023-03-13T15:38:22.493Z,16.60
2023-03-13T15:40:49.788Z,16.60
2023-03-13T15:43:17.772Z,16.60
2023-03-13T15:45:47.760Z,16.70
2023-03-13T15:48:19.632Z,16.70
2023-03-13T15:51:01.228Z,16.70
2023-03-13T15:53:31.641Z,16.70
2023-03-13T15:56:03.087Z,16.70
2023-03-13T15:58:30.250Z,16.70
2023-03-13T16:00:57.955Z,16.70
2023-03-13T16:03:27.608Z,16.70
2023-03-13T16:05:56.043Z,16.70
2023-03-13T16:08:36.483Z,16.70
2023-03-13T16:11:04.480Z,16.70
2023-03-13T16:13:31.551Z,16.70
2023-03-13T16:15:58.480Z,16.70
2023-03-13T16:18:25.870Z,16.80
2023-03-13T16:20:53.344Z,16.80
2023-03-13T16:23:20.467Z,16.80
2023-03-13T16:25:48.528Z,16.80
2023-03-13T16:28:16.346Z,16.80
2023-03-13T16:30:47.670Z,16.80
2023-03-13T16:33:14.897Z,16.80
2023-03-13T16:35:41.753Z,16.80
2023-03-13T16:38:11.514Z,16.80
2023-03-13T16:40:38.433Z,16.80
2023-03-13T16:43:05.202Z,16.80
2023-03-13T16:45:31.975Z,16.80
2023-03-13T16:47:58.790Z,16.80
2023-03-13T16:50:34.218Z,16.80
2023-03-13T16:53:01.673Z,16.80
2023-03-13T16:55:29.634Z,16.80
2023-03-13T16:57:57.799Z,16.80
2023-03-13T17:00:27.032Z,16.80
2023-03-13T17:02:54.197Z,16.80
2023-03-13T17:05:21.005Z,16.80
2023-03-13T17:07:49.710Z,16.80
2023-03-13T17:10:33.421Z,16.80
2023-03-13T17:13:00.620Z,16.80
2023-03-13T17:15:28.673Z,16.80
2023-03-13T17:17:55.912Z,16.80
2023-03-13T17:20:28.656Z,16.70
2023-03-13T17:22:58.405Z,16.80
2023-03-13T17:25:25.309Z,16.80
2023-03-13T17:27:52.617Z,16.80
2023-03-13T17:30:28.263Z,16.80
2023-03-13T17:32:55.128Z,16.80
2023-03-13T17:35:23.085Z,16.80
2023-03-13T17:37:50.623Z,16.80
2023-03-13T17:40:21.837Z,16.80
2023-03-13T17:42:48.936Z,16.80
2023-03-13T17:45:16.533Z,16.80
2023-03-13T17:47:43.690Z,16.80
2023-03-13T17:50:22.959Z,16.70
2023-03-13T17:52:50.302Z,16.80
2023-03-13T17:55:17.148Z,16.70
2023-03-13T17:57:44.047Z,16.70
2023-03-13T18:00:30.212Z,16.70
2023-03-13T18:02:57.323Z,16.70
2023-03-13T18:05:24.328Z,16.70
2023-03-13T18:07:54.315Z,16.70
2023-03-13T18:10:24.994Z,16.70
2023-03-13T18:12:52.077Z,16.70
2023-03-13T18:15:20.230Z,16.70
2023-03-13T18:17:47.018Z,16.70
2023-03-13T18:20:17.152Z,16.70
2023-03-13T18:22:43.943Z,16.70
2023-03-13T18:25:11.334Z,16.80
2023-03-13T18:27:38.363Z,16.80
2023-03-13T18:30:15.862Z,16.70
2023-03-13T18:32:42.740Z,16.70
2023-03-13T18:35:10.083Z,16.80
2023-03-13T18:37:36.993Z,16.70
2023-03-13T18:40:10.728Z,16.70
2023-03-13T18:42:37.412Z,16.70
2023-03-13T18:45:05.647Z,16.70
2023-03-13T18:47:32.350Z,16.70
2023-03-13T18:49:59.086Z,16.70
2023-03-13T18:52:25.808Z,16.70
2023-03-13T18:54:52.561Z,16.70
2023-03-13T18:57:20.191Z,16.70
2023-03-13T18:59:47.055Z,16.80
2023-03-13T19:02:18.339Z,16.70
2023-03-13T19:04:47.059Z,16.70
2023-03-13T19:07:24.026Z,16.70
2023-03-13T19:09:50.813Z,16.70
2023-03-13T19:12:17.683Z,16.70
2023-03-13T19:14:44.494Z,16.70
2023-03-13T19:17:23.077Z,16.70
2023-03-13T19:19:49.771Z,16.70
2023-03-13T19:22:16.521Z,16.70
2023-03-13T19:24:43.371Z,16.70
2023-03-13T19:27:13.999Z,16.70
2023-03-13T19:29:40.803Z,16.70
2023-03-13T19:32:12.012Z,16.70
2023-03-13T19:34:38.785Z,16.70
2023-03-13T19:37:05.556Z,16.70
2023-03-13T19:39:32.811Z,16.70
2023-03-13T19:41:59.950Z,16.70
2023-03-13T19:44:26.657Z,16.70
2023-03-13T19:46:55.768Z,16.70
2023-03-13T19:49:22.530Z,16.70
2023-03-13T19:51:49.306Z,16.70
2023-03-13T19:54:16.292Z,16.70
2023-03-13T19:56:45.405Z,16.70
2023-03-13T19:59:20.650Z,16.70
2023-03-13T20:01:47.845Z,16.80
2023-03-13T20:04:15.395Z,16.80
2023-03-13T20:06:42.691Z,16.90
2023-03-13T20:09:12.016Z,17.10
2023-03-13T20:11:39.071Z,17.30
2023-03-13T20:14:06.170Z,17.50
2023-03-13T20:16:35.033Z,17.80
2023-03-13T20:19:02.366Z,18.10
2023-03-13T20:21:31.210Z,18.40
2023-03-13T20:23:58.914Z,18.70
2023-03-13T20:26:27.985Z,19.10
2023-03-13T20:28:55.905Z,19.30
2023-03-13T20:31:26.063Z,19.60
2023-03-13T20:33:52.814Z,19.80
2023-03-13T20:36:21.337Z,20.00
2023-03-13T20:38:48.314Z,20.10
2023-03-13T20:41:16.461Z,20.20
2023-03-13T20:43:43.540Z,20.30
2023-03-13T20:46:10.544Z,20.30
2023-03-13T20:48:39.697Z,20.40
2023-03-13T20:51:08.449Z,20.40
2023-03-13T20:53:37.276Z,20.40
2023-03-13T20:56:06.989Z,20.50
2023-03-13T20:58:37.443Z,20.50
2023-03-13T21:01:05.960Z,20.70
2023-03-13T21:03:35.170Z,20.70
2023-03-13T21:06:11.850Z,20.80
2023-03-13T21:08:39.080Z,20.90
2023-03-13T21:11:21.670Z,21.00
2023-03-13T21:13:49.262Z,21.10
2023-03-13T21:16:16.865Z,21.10
2023-03-13T21:18:43.828Z,21.10
2023-03-13T21:21:20.504Z,21.10
2023-03-13T21:23:47.854Z,21.20
2023-03-13T21:26:14.984Z,21.20
2023-03-13T21:28:41.955Z,21.20
2023-03-13T21:31:15.177Z,21.20
2023-03-13T21:33:43.577Z,21.20
2023-03-13T21:36:11.364Z,21.10
2023-03-13T21:38:38.374Z,21.10
2023-03-13T21:41:19.894Z,21.10
2023-03-13T21:43:47.083Z,21.10
2023-03-13T21:46:17.018Z,21.10
2023-03-13T21:51:13.107Z,21.00
2023-03-13T21:53:41.920Z,21.00
2023-03-13T21:56:09.150Z,20.90
2023-03-13T21:58:35.919Z,20.90
2023-03-13T22:01:02.770Z,20.90
2023-03-13T22:03:31.706Z,20.80
2023-03-13T22:05:58.668Z,20.80
2023-03-13T22:08:25.389Z,20.70
2023-03-13T22:10:54.750Z,20.70
2023-03-13T22:13:21.628Z,20.60
2023-03-13T22:15:48.292Z,20.60
2023-03-13T22:18:16.309Z,20.50
2023-03-13T22:20:43.565Z,20.50
2023-03-13T22:23:11.280Z,20.50
2023-03-13T22:25:42.430Z,20.40
2023-03-13T22:28:10.946Z,20.40
2023-03-13T22:30:38.831Z,20.30
2023-03-13T22:33:06.852Z,20.30
2023-03-13T22:35:34.982Z,20.30
2023-03-13T22:38:01.893Z,20.20
2023-03-13T22:40:28.685Z,20.10
2023-03-13T22:42:55.667Z,20.10
2023-03-13T22:45:23.084Z,20.10
2023-03-13T22:47:50.085Z,20.00
2023-03-13T22:50:17.594Z,20.00
2023-03-13T22:52:44.539Z,19.90
2023-03-13T22:55:11.358Z,19.90
2023-03-13T22:57:38.178Z,19.80
2023-03-13T23:00:07.196Z,19.80
2023-03-13T23:02:34.170Z,19.80
2023-03-13T23:05:01.127Z,19.70
2023-03-13T23:07:29.614Z,19.70
2023-03-13T23:09:57.417Z,19.60
2023-03-13T23:12:25.329Z,19.60
2023-03-13T23:14:52.750Z,19.50
2023-03-13T23:17:19.639Z,19.50
2023-03-13T23:19:46.333Z,19.40
2023-03-13T23:22:17.660Z,19.40
2023-03-13T23:24:44.656Z,19.40
2023-03-13T23:27:11.511Z,19.30
2023-03-13T23:29:38.248Z,19.30
2023-03-13T23:32:05.181Z,19.20
2023-03-13T23:34:32.179Z,19.20
2023-03-13T23:36:59.092Z,19.20
2023-03-13T23:39:25.763Z,19.10
2023-03-13T23:41:52.500Z,19.10
2023-03-13T23:44:19.284Z,19.00
2023-03-13T23:46:45.943Z,19.00
2023-03-13T23:49:15.373Z,19.00
2023-03-13T23:51:42.062Z,19.00
2023-03-13T23:54:08.846Z,18.90
2023-03-13T23:56:35.581Z,18.90
2023-03-13T23:59:02.306Z,18.90
